createdAt,value
2019-05-14T00:00:03.121Z,5.30
2019-05-14T00:10:02.345Z,5.25
2019-05-14T00:20:09.081Z,4.98
2019-05-14T00:30:04.332Z,4.57
2019-05-14T00:40:02.780Z,4.65
2019-05-14T00:50:02.648Z,4.21
2019-05-14T01:00:09.005Z,4.02
2019-05-14T01:10:02.764Z,4.18
2019-05-14T01:20:03.290Z,4.45
2019-05-14T01:30:03.616Z,4.55
2019-05-14T01:40:02.385Z,4.76
2019-05-14T01:50:04.526Z,4.66
2019-05-14T02:00:02.906Z,4.98
2019-05-14T02:10:02.905Z,4.78
2019-05-14T02:20:03.026Z,4.50
2019-05-14T02:30:02.829Z,3.93
2019-05-14T02:40:09.798Z,3.60
2019-05-14T02:50:03.084Z,3.36
2019-05-14T03:00:03.037Z,3.69
2019-05-14T03:10:09.872Z,3.78
2019-05-14T03:20:02.902Z,3.75
2019-05-14T03:30:03.429Z,3.50
2019-05-14T03:40:02.949Z,3.14
2019-05-14T03:50:03.011Z,2.89
2019-05-14T04:00:02.923Z,3.19
2019-05-14T04:10:02.228Z,3.44
2019-05-14T04:20:09.361Z,4.29
2019-05-14T04:30:03.594Z,5.09
2019-05-14T04:40:02.456Z,5.77
2019-05-14T04:50:02.142Z,6.10
2019-05-14T05:00:02.897Z,6.62
2019-05-14T05:10:02.690Z,7.47
2019-05-14T05:20:02.797Z,7.70
2019-05-14T05:30:04.478Z,7.90
2019-05-14T05:40:03.225Z,8.02
2019-05-14T05:50:02.379Z,8.90
2019-05-14T06:00:02.671Z,8.86
2019-05-14T06:10:03.244Z,9.12
2019-05-14T06:20:08.509Z,9.53
2019-05-14T06:30:03.380Z,9.76
2019-05-14T06:40:08.883Z,10.04
2019-05-14T06:50:02.422Z,10.41
2019-05-14T07:00:02.637Z,11.75
2019-05-14T07:10:02.797Z,10.66
2019-05-14T07:20:02.799Z,12.47
2019-05-14T07:30:03.329Z,11.82
2019-05-14T07:40:02.424Z,12.01
2019-05-14T07:50:02.603Z,11.80
2019-05-14T08:00:03.130Z,11.16
2019-05-14T08:10:02.839Z,11.79
2019-05-14T08:20:02.986Z,11.91
2019-05-14T08:30:03.065Z,11.66
2019-05-14T08:40:02.990Z,10.79
2019-05-14T08:50:02.691Z,9.21
2019-05-14T09:00:03.267Z,8.88
2019-05-14T09:10:03.016Z,11.36
2019-05-14T09:20:10.944Z,12.05
2019-05-14T09:30:02.931Z,13.45
2019-05-14T09:40:02.551Z,13.30
2019-05-14T09:50:14.103Z,12.73
2019-05-14T10:00:03.790Z,12.00
2019-05-14T10:10:07.733Z,13.60
2019-05-14T10:20:02.540Z,13.55
2019-05-14T10:30:03.419Z,14.56
2019-05-14T10:40:02.811Z,12.68
2019-05-14T10:50:02.754Z,10.86
2019-05-14T11:00:02.842Z,9.97
2019-05-14T11:10:03.323Z,11.34
2019-05-14T11:20:02.742Z,13.02
2019-05-14T11:30:03.045Z,12.97
2019-05-14T11:40:02.532Z,12.76
2019-05-14T11:50:02.492Z,11.34
2019-05-14T12:00:03.353Z,13.34
2019-05-14T12:10:03.292Z,15.58
2019-05-14T12:20:02.375Z,15.50
2019-05-14T12:30:03.290Z,12.61
2019-05-14T12:40:08.872Z,14.37
2019-05-14T12:50:02.925Z,14.01
2019-05-14T13:00:03.755Z,14.20
2019-05-14T13:10:09.125Z,14.11
2019-05-14T13:20:02.753Z,14.78
2019-05-14T13:30:02.601Z,14.35
2019-05-14T13:40:02.855Z,14.29
2019-05-14T13:50:02.717Z,10.15
2019-05-14T14:00:03.186Z,11.22
2019-05-14T14:10:02.345Z,12.93
2019-05-14T14:20:02.307Z,13.08
2019-05-14T14:30:03.129Z,13.61
2019-05-14T14:40:02.238Z,10.91
2019-05-14T14:50:02.769Z,10.28
2019-05-14T15:00:09.536Z,10.51
2019-05-14T15:10:08.725Z,7.64
2019-05-14T15:20:03.033Z,7.61
2019-05-14T15:30:03.278Z,8.54
2019-05-14T15:40:08.130Z,10.15
2019-05-14T15:50:02.559Z,9.21
2019-05-14T16:00:02.995Z,6.83
2019-05-14T16:10:02.813Z,6.62
2019-05-14T16:20:02.967Z,7.00
2019-05-14T16:30:03.267Z,7.52
2019-05-14T16:40:02.323Z,7.96
2019-05-14T16:50:02.188Z,8.69
2019-05-14T17:00:03.025Z,10.20
2019-05-14T17:10:02.083Z,10.26
2019-05-14T17:20:02.655Z,10.14
2019-05-14T17:30:03.066Z,8.56
2019-05-14T17:40:02.583Z,7.96
2019-05-14T17:50:02.353Z,8.46
2019-05-14T18:00:03.125Z,8.31
2019-05-14T18:10:02.937Z,8.00
2019-05-14T18:20:03.179Z,7.80
2019-05-14T18:30:03.414Z,7.35
2019-05-14T18:40:02.444Z,7.11
2019-05-14T18:50:02.185Z,6.92
2019-05-14T19:00:02.857Z,6.83
2019-05-14T19:10:02.536Z,6.71
2019-05-14T19:20:02.479Z,6.55
2019-05-14T19:30:03.191Z,6.27
2019-05-14T19:40:02.108Z,5.91
2019-05-14T19:50:03.002Z,5.61
2019-05-14T20:00:09.087Z,5.45
2019-05-14T20:10:02.644Z,5.43
2019-05-14T20:20:02.842Z,5.56
2019-05-14T20:30:03.547Z,5.55
2019-05-14T20:40:02.680Z,5.53
2019-05-14T20:50:02.462Z,5.45
2019-05-14T21:00:03.236Z,5.54
2019-05-14T21:10:02.624Z,5.49
2019-05-14T21:20:02.381Z,5.49
2019-05-14T21:30:03.346Z,5.39
2019-05-14T21:40:02.899Z,5.24
2019-05-14T21:50:08.907Z,5.17
2019-05-14T22:00:03.099Z,5.23
2019-05-14T22:10:02.647Z,5.07
2019-05-14T22:20:02.723Z,5.12
2019-05-14T22:30:02.573Z,5.08
2019-05-14T22:40:07.651Z,4.99
2019-05-14T22:50:02.038Z,4.94
2019-05-14T23:00:02.818Z,4.86
2019-05-14T23:10:02.804Z,4.86
2019-05-14T23:20:02.722Z,4.79
2019-05-14T23:30:02.976Z,4.56
2019-05-14T23:40:02.465Z,4.46
2019-05-14T23:50:02.222Z,4.43
